sensor_id;sensor_type;location;lat;lon;timestamp;temperature;humidity
71801;HTU21D;59647;55.838;37.292;2023-04-24T00:00:20;9.19;45.74
71801;HTU21D;59647;55.838;37.292;2023-04-24T00:02:46;9.16;46.14
71801;HTU21D;59647;55.838;37.292;2023-04-24T00:05:16;9.10;47.06
71801;HTU21D;59647;55.838;37.292;2023-04-24T00:07:44;9.07;47.31
71801;HTU21D;59647;55.838;37.292;2023-04-24T00:10:11;9.03;46.83
71801;HTU21D;59647;55.838;37.292;2023-04-24T00:12:37;9.03;46.60
71801;HTU21D;59647;55.838;37.292;2023-04-24T00:15:04;9.00;46.65
71801;HTU21D;59647;55.838;37.292;2023-04-24T00:17:30;9.00;46.51
71801;HTU21D;59647;55.838;37.292;2023-04-24T00:19:57;9.01;45.91
71801;HTU21D;59647;55.838;37.292;2023-04-24T00:22:27;9.00;46.01
71801;HTU21D;59647;55.838;37.292;2023-04-24T00:24:53;9.01;45.15
71801;HTU21D;59647;55.838;37.292;2023-04-24T00:27:19;9.07;44.27
71801;HTU21D;59647;55.838;37.292;2023-04-24T00:29:45;9.05;46.76
71801;HTU21D;59647;55.838;37.292;2023-04-24T00:32:11;8.91;47.24
71801;HTU21D;59647;55.838;37.292;2023-04-24T00:34:37;8.88;45.57
71801;HTU21D;59647;55.838;37.292;2023-04-24T00:37:03;8.96;44.09
71801;HTU21D;59647;55.838;37.292;2023-04-24T00:39:29;9.12;43.92
71801;HTU21D;59647;55.838;37.292;2023-04-24T00:41:55;9.23;43.31
71801;HTU21D;59647;55.838;37.292;2023-04-24T00:44:22;9.33;43.85
71801;HTU21D;59647;55.838;37.292;2023-04-24T00:46:49;9.31;43.36
71801;HTU21D;59647;55.838;37.292;2023-04-24T00:49:22;9.34;43.74
71801;HTU21D;59647;55.838;37.292;2023-04-24T00:51:48;9.30;44.76
71801;HTU21D;59647;55.838;37.292;2023-04-24T00:54:17;9.19;44.93
71801;HTU21D;59647;55.838;37.292;2023-04-24T00:56:44;9.11;44.77
71801;HTU21D;59647;55.838;37.292;2023-04-24T00:59:15;9.19;43.42
71801;HTU21D;59647;55.838;37.292;2023-04-24T01:01:41;9.33;42.77
71801;HTU21D;59647;55.838;37.292;2023-04-24T01:04:09;9.45;42.84
71801;HTU21D;59647;55.838;37.292;2023-04-24T01:06:38;9.53;42.37
71801;HTU21D;59647;55.838;37.292;2023-04-24T01:09:04;9.57;41.96
71801;HTU21D;59647;55.838;37.292;2023-04-24T01:11:30;9.62;42.07
71801;HTU21D;59647;55.838;37.292;2023-04-24T01:13:57;9.62;43.07
71801;HTU21D;59647;55.838;37.292;2023-04-24T01:16:24;9.64;42.26
71801;HTU21D;59647;55.838;37.292;2023-04-24T01:18:50;9.68;42.54
71801;HTU21D;59647;55.838;37.292;2023-04-24T01:21:20;9.72;42.69
71801;HTU21D;59647;55.838;37.292;2023-04-24T01:23:47;9.77;42.45
71801;HTU21D;59647;55.838;37.292;2023-04-24T01:26:16;9.83;42.17
71801;HTU21D;59647;55.838;37.292;2023-04-24T01:28:42;9.86;41.94
71801;HTU21D;59647;55.838;37.292;2023-04-24T01:31:09;9.91;42.10
71801;HTU21D;59647;55.838;37.292;2023-04-24T01:33:35;9.91;42.26
71801;HTU21D;59647;55.838;37.292;2023-04-24T01:36:01;9.94;41.88
71801;HTU21D;59647;55.838;37.292;2023-04-24T01:38:27;9.98;41.74
71801;HTU21D;59647;55.838;37.292;2023-04-24T01:40:53;10.03;41.73
71801;HTU21D;59647;55.838;37.292;2023-04-24T01:43:19;10.04;41.58
71801;HTU21D;59647;55.838;37.292;2023-04-24T01:45:45;10.05;41.47
71801;HTU21D;59647;55.838;37.292;2023-04-24T01:48:12;10.05;41.55
71801;HTU21D;59647;55.838;37.292;2023-04-24T01:50:38;10.07;41.50
71801;HTU21D;59647;55.838;37.292;2023-04-24T01:53:04;10.07;41.85
71801;HTU21D;59647;55.838;37.292;2023-04-24T01:55:30;10.08;41.57
71801;HTU21D;59647;55.838;37.292;2023-04-24T01:57:57;10.08;41.47
71801;HTU21D;59647;55.838;37.292;2023-04-24T02:00:24;10.11;41.49
71801;HTU21D;59647;55.838;37.292;2023-04-24T02:02:52;10.13;41.49
71801;HTU21D;59647;55.838;37.292;2023-04-24T02:05:18;10.15;41.42
71801;HTU21D;59647;55.838;37.292;2023-04-24T02:07:44;10.16;41.31
71801;HTU21D;59647;55.838;37.292;2023-04-24T02:10:10;10.18;41.28
71801;HTU21D;59647;55.838;37.292;2023-04-24T02:12:41;10.18;41.55
71801;HTU21D;59647;55.838;37.292;2023-04-24T02:15:07;10.19;41.55
71801;HTU21D;59647;55.838;37.292;2023-04-24T02:17:37;10.22;41.40
71801;HTU21D;59647;55.838;37.292;2023-04-24T02:20:05;10.25;42.03
71801;HTU21D;59647;55.838;37.292;2023-04-24T02:22:31;10.26;41.62
71801;HTU21D;59647;55.838;37.292;2023-04-24T02:25:01;10.29;41.42
71801;HTU21D;59647;55.838;37.292;2023-04-24T02:27:31;10.33;41.50
71801;HTU21D;59647;55.838;37.292;2023-04-24T02:29:57;10.29;42.43
71801;HTU21D;59647;55.838;37.292;2023-04-24T02:32:23;10.30;42.48
71801;HTU21D;59647;55.838;37.292;2023-04-24T02:34:49;10.27;42.77
71801;HTU21D;59647;55.838;37.292;2023-04-24T02:37:15;10.18;43.26
71801;HTU21D;59647;55.838;37.292;2023-04-24T02:39:43;10.13;42.46
71801;HTU21D;59647;55.838;37.292;2023-04-24T02:42:09;10.21;42.09
71801;HTU21D;59647;55.838;37.292;2023-04-24T02:44:35;10.28;41.74
71801;HTU21D;59647;55.838;37.292;2023-04-24T02:47:01;10.35;41.78
71801;HTU21D;59647;55.838;37.292;2023-04-24T02:49:28;10.39;41.58
71801;HTU21D;59647;55.838;37.292;2023-04-24T02:51:54;10.44;41.55
71801;HTU21D;59647;55.838;37.292;2023-04-24T02:54:20;10.50;41.36
71801;HTU21D;59647;55.838;37.292;2023-04-24T02:56:46;10.55;41.33
71801;HTU21D;59647;55.838;37.292;2023-04-24T02:59:12;10.62;41.23
71801;HTU21D;59647;55.838;37.292;2023-04-24T03:01:38;10.68;41.75
71801;HTU21D;59647;55.838;37.292;2023-04-24T03:04:04;10.74;41.31
71801;HTU21D;59647;55.838;37.292;2023-04-24T03:06:30;10.81;41.33
71801;HTU21D;59647;55.838;37.292;2023-04-24T03:08:59;10.88;41.48
71801;HTU21D;59647;55.838;37.292;2023-04-24T03:11:25;10.95;41.10
71801;HTU21D;59647;55.838;37.292;2023-04-24T03:13:52;11.01;40.95
71801;HTU21D;59647;55.838;37.292;2023-04-24T03:16:19;11.09;40.86
71801;HTU21D;59647;55.838;37.292;2023-04-24T03:18:46;11.15;40.85
71801;HTU21D;59647;55.838;37.292;2023-04-24T03:21:13;11.22;40.83
71801;HTU21D;59647;55.838;37.292;2023-04-24T03:23:40;11.30;40.79
71801;HTU21D;59647;55.838;37.292;2023-04-24T03:26:07;11.34;40.66
71801;HTU21D;59647;55.838;37.292;2023-04-24T03:28:36;11.43;40.59
71801;HTU21D;59647;55.838;37.292;2023-04-24T03:31:04;11.49;40.58
71801;HTU21D;59647;55.838;37.292;2023-04-24T03:33:34;11.58;40.40
71801;HTU21D;59647;55.838;37.292;2023-04-24T03:36:02;11.62;40.46
71801;HTU21D;59647;55.838;37.292;2023-04-24T03:38:36;11.72;40.36
71801;HTU21D;59647;55.838;37.292;2023-04-24T03:41:25;11.78;40.35
71801;HTU21D;59647;55.838;37.292;2023-04-24T03:44:14;11.88;40.19
71801;HTU21D;59647;55.838;37.292;2023-04-24T03:46:40;11.96;40.03
71801;HTU21D;59647;55.838;37.292;2023-04-24T03:49:06;12.05;39.97
71801;HTU21D;59647;55.838;37.292;2023-04-24T03:51:36;12.14;39.91
71801;HTU21D;59647;55.838;37.292;2023-04-24T03:54:18;12.26;39.81
71801;HTU21D;59647;55.838;37.292;2023-04-24T03:56:45;12.36;39.77
71801;HTU21D;59647;55.838;37.292;2023-04-24T03:59:11;12.47;39.63
71801;HTU21D;59647;55.838;37.292;2023-04-24T04:01:38;12.59;39.57
71801;HTU21D;59647;55.838;37.292;2023-04-24T04:04:11;12.71;39.43
71801;HTU21D;59647;55.838;37.292;2023-04-24T04:06:37;12.81;39.36
71801;HTU21D;59647;55.838;37.292;2023-04-24T04:09:04;12.90;39.28
71801;HTU21D;59647;55.838;37.292;2023-04-24T04:11:30;13.02;39.18
71801;HTU21D;59647;55.838;37.292;2023-04-24T04:13:56;13.15;39.07
71801;HTU21D;59647;55.838;37.292;2023-04-24T04:16:23;13.22;39.04
71801;HTU21D;59647;55.838;37.292;2023-04-24T04:18:52;13.34;38.94
71801;HTU21D;59647;55.838;37.292;2023-04-24T04:21:19;13.46;38.72
71801;HTU21D;59647;55.838;37.292;2023-04-24T04:23:47;13.56;38.67
71801;HTU21D;59647;55.838;37.292;2023-04-24T04:26:18;13.65;39.22
71801;HTU21D;59647;55.838;37.292;2023-04-24T04:29:06;13.75;38.59
71801;HTU21D;59647;55.838;37.292;2023-04-24T04:31:34;13.86;38.54
71801;HTU21D;59647;55.838;37.292;2023-04-24T04:34:05;14.00;38.47
71801;HTU21D;59647;55.838;37.292;2023-04-24T04:36:33;14.14;38.59
71801;HTU21D;59647;55.838;37.292;2023-04-24T04:39:13;14.30;38.26
71801;HTU21D;59647;55.838;37.292;2023-04-24T04:42:09;14.41;38.22
71801;HTU21D;59647;55.838;37.292;2023-04-24T04:44:40;14.53;38.15
71801;HTU21D;59647;55.838;37.292;2023-04-24T04:47:08;14.67;38.01
71801;HTU21D;59647;55.838;37.292;2023-04-24T04:49:38;14.75;37.95
71801;HTU21D;59647;55.838;37.292;2023-04-24T04:52:08;14.91;37.85
71801;HTU21D;59647;55.838;37.292;2023-04-24T04:54:35;15.04;37.88
71801;HTU21D;59647;55.838;37.292;2023-04-24T04:57:00;15.21;37.73
71801;HTU21D;59647;55.838;37.292;2023-04-24T04:59:27;15.32;37.63
71801;HTU21D;59647;55.838;37.292;2023-04-24T05:02:00;15.40;37.46
71801;HTU21D;59647;55.838;37.292;2023-04-24T05:04:26;15.51;37.49
71801;HTU21D;59647;55.838;37.292;2023-04-24T05:06:52;15.61;37.36
71801;HTU21D;59647;55.838;37.292;2023-04-24T05:09:19;15.73;37.14
71801;HTU21D;59647;55.838;37.292;2023-04-24T05:11:53;15.91;37.04
71801;HTU21D;59647;55.838;37.292;2023-04-24T05:14:21;16.05;36.95
71801;HTU21D;59647;55.838;37.292;2023-04-24T05:16:48;16.20;36.97
71801;HTU21D;59647;55.838;37.292;2023-04-24T05:19:16;16.32;36.60
71801;HTU21D;59647;55.838;37.292;2023-04-24T05:21:44;16.48;36.74
71801;HTU21D;59647;55.838;37.292;2023-04-24T05:24:11;16.66;36.65
71801;HTU21D;59647;55.838;37.292;2023-04-24T05:26:50;16.79;36.52
71801;HTU21D;59647;55.838;37.292;2023-04-24T05:29:20;16.99;36.56
71801;HTU21D;59647;55.838;37.292;2023-04-24T05:31:46;17.13;36.39
71801;HTU21D;59647;55.838;37.292;2023-04-24T05:34:12;17.29;36.32
71801;HTU21D;59647;55.838;37.292;2023-04-24T05:36:43;17.46;36.19
71801;HTU21D;59647;55.838;37.292;2023-04-24T05:39:08;17.58;35.88
71801;HTU21D;59647;55.838;37.292;2023-04-24T05:41:34;17.73;35.94
71801;HTU21D;59647;55.838;37.292;2023-04-24T05:44:00;17.88;34.79
71801;HTU21D;59647;55.838;37.292;2023-04-24T05:46:26;18.02;34.92
71801;HTU21D;59647;55.838;37.292;2023-04-24T05:48:52;18.17;33.94
71801;HTU21D;59647;55.838;37.292;2023-04-24T05:51:18;18.29;34.02
71801;HTU21D;59647;55.838;37.292;2023-04-24T05:53:44;18.43;33.98
71801;HTU21D;59647;55.838;37.292;2023-04-24T05:56:11;18.59;34.39
71801;HTU21D;59647;55.838;37.292;2023-04-24T05:58:37;18.74;33.91
71801;HTU21D;59647;55.838;37.292;2023-04-24T06:01:04;18.95;34.19
71801;HTU21D;59647;55.838;37.292;2023-04-24T06:03:31;19.16;34.04
71801;HTU21D;59647;55.838;37.292;2023-04-24T06:05:57;19.38;33.97
71801;HTU21D;59647;55.838;37.292;2023-04-24T06:08:24;19.57;33.70
71801;HTU21D;59647;55.838;37.292;2023-04-24T06:10:51;19.76;33.49
71801;HTU21D;59647;55.838;37.292;2023-04-24T06:13:19;19.89;32.76
71801;HTU21D;59647;55.838;37.292;2023-04-24T06:16:05;20.07;33.11
71801;HTU21D;59647;55.838;37.292;2023-04-24T06:18:34;20.26;33.09
71801;HTU21D;59647;55.838;37.292;2023-04-24T06:21:01;20.43;32.22
71801;HTU21D;59647;55.838;37.292;2023-04-24T06:23:29;20.62;32.49
71801;HTU21D;59647;55.838;37.292;2023-04-24T06:25:58;20.79;31.13
71801;HTU21D;59647;55.838;37.292;2023-04-24T06:28:24;20.92;30.95
71801;HTU21D;59647;55.838;37.292;2023-04-24T06:30:52;21.13;31.48
71801;HTU21D;59647;55.838;37.292;2023-04-24T06:33:18;21.31;31.24
71801;HTU21D;59647;55.838;37.292;2023-04-24T06:35:44;21.49;31.22
71801;HTU21D;59647;55.838;37.292;2023-04-24T06:38:10;21.67;30.90
71801;HTU21D;59647;55.838;37.292;2023-04-24T06:40:37;21.80;30.19
71801;HTU21D;59647;55.838;37.292;2023-04-24T06:43:02;21.91;30.25
71801;HTU21D;59647;55.838;37.292;2023-04-24T06:45:29;22.07;30.30
71801;HTU21D;59647;55.838;37.292;2023-04-24T06:47:55;22.21;29.77
71801;HTU21D;59647;55.838;37.292;2023-04-24T06:50:22;22.37;28.90
71801;HTU21D;59647;55.838;37.292;2023-04-24T06:52:48;22.29;27.20
71801;HTU21D;59647;55.838;37.292;2023-04-24T06:55:14;22.18;28.06
71801;HTU21D;59647;55.838;37.292;2023-04-24T06:57:42;22.32;28.87
71801;HTU21D;59647;55.838;37.292;2023-04-24T07:00:10;22.49;27.21
71801;HTU21D;59647;55.838;37.292;2023-04-24T07:02:36;22.47;24.72
71801;HTU21D;59647;55.838;37.292;2023-04-24T07:05:04;22.57;27.78
71801;HTU21D;59647;55.838;37.292;2023-04-24T07:07:31;22.70;27.21
71801;HTU21D;59647;55.838;37.292;2023-04-24T07:09:57;22.81;26.91
71801;HTU21D;59647;55.838;37.292;2023-04-24T07:12:24;23.10;27.56
71801;HTU21D;59647;55.838;37.292;2023-04-24T07:14:50;23.38;27.52
71801;HTU21D;59647;55.838;37.292;2023-04-24T07:17:16;23.67;25.38
71801;HTU21D;59647;55.838;37.292;2023-04-24T07:19:42;23.80;21.49
71801;HTU21D;59647;55.838;37.292;2023-04-24T07:22:08;23.94;24.29
71801;HTU21D;59647;55.838;37.292;2023-04-24T07:24:37;24.12;24.50
71801;HTU21D;59647;55.838;37.292;2023-04-24T07:27:04;24.38;24.69
71801;HTU21D;59647;55.838;37.292;2023-04-24T07:29:30;24.41;21.64
71801;HTU21D;59647;55.838;37.292;2023-04-24T07:31:56;24.30;22.22
71801;HTU21D;59647;55.838;37.292;2023-04-24T07:34:22;24.47;21.28
71801;HTU21D;59647;55.838;37.292;2023-04-24T07:36:48;24.49;22.01
71801;HTU21D;59647;55.838;37.292;2023-04-24T07:39:14;24.73;23.45
71801;HTU21D;59647;55.838;37.292;2023-04-24T07:41:39;25.16;24.24
71801;HTU21D;59647;55.838;37.292;2023-04-24T07:44:06;25.53;20.28
71801;HTU21D;59647;55.838;37.292;2023-04-24T07:46:32;25.65;23.01
71801;HTU21D;59647;55.838;37.292;2023-04-24T07:48:58;25.75;22.89
71801;HTU21D;59647;55.838;37.292;2023-04-24T07:51:25;25.90;22.45
71801;HTU21D;59647;55.838;37.292;2023-04-24T07:53:53;26.06;21.99
71801;HTU21D;59647;55.838;37.292;2023-04-24T07:56:21;25.97;22.41
71801;HTU21D;59647;55.838;37.292;2023-04-24T07:58:47;25.78;18.73
71801;HTU21D;59647;55.838;37.292;2023-04-24T08:01:13;25.62;19.57
71801;HTU21D;59647;55.838;37.292;2023-04-24T08:03:39;25.38;19.16
71801;HTU21D;59647;55.838;37.292;2023-04-24T08:06:05;25.02;18.30
71801;HTU21D;59647;55.838;37.292;2023-04-24T08:08:31;24.80;19.70
71801;HTU21D;59647;55.838;37.292;2023-04-24T08:10:58;24.64;20.21
71801;HTU21D;59647;55.838;37.292;2023-04-24T08:13:23;24.39;19.64
71801;HTU21D;59647;55.838;37.292;2023-04-24T08:15:49;24.32;20.64
71801;HTU21D;59647;55.838;37.292;2023-04-24T08:18:15;24.24;19.97
71801;HTU21D;59647;55.838;37.292;2023-04-24T08:20:41;24.48;21.36
71801;HTU21D;59647;55.838;37.292;2023-04-24T08:23:07;24.90;20.04
71801;HTU21D;59647;55.838;37.292;2023-04-24T08:25:33;24.77;14.77
71801;HTU21D;59647;55.838;37.292;2023-04-24T08:28:03;24.61;19.74
71801;HTU21D;59647;55.838;37.292;2023-04-24T08:30:29;24.65;20.87
71801;HTU21D;59647;55.838;37.292;2023-04-24T08:32:56;24.72;19.62
71801;HTU21D;59647;55.838;37.292;2023-04-24T08:35:22;24.71;20.77
71801;HTU21D;59647;55.838;37.292;2023-04-24T08:37:48;24.69;20.97
71801;HTU21D;59647;55.838;37.292;2023-04-24T08:40:16;24.69;21.26
71801;HTU21D;59647;55.838;37.292;2023-04-24T08:42:43;24.63;21.05
71801;HTU21D;59647;55.838;37.292;2023-04-24T08:45:13;24.88;20.94
71801;HTU21D;59647;55.838;37.292;2023-04-24T08:47:40;25.23;20.30
71801;HTU21D;59647;55.838;37.292;2023-04-24T08:50:07;25.64;19.58
71801;HTU21D;59647;55.838;37.292;2023-04-24T08:52:34;0.00;0.00
71801;HTU21D;59647;55.838;37.292;2023-04-24T08:55:00;0.00;0.00
71801;HTU21D;59647;55.838;37.292;2023-04-24T08:57:31;0.00;0.00
71801;HTU21D;59647;55.838;37.292;2023-04-24T08:59:58;0.00;0.00
71801;HTU21D;59647;55.838;37.292;2023-04-24T09:02:25;0.00;0.00
71801;HTU21D;59647;55.838;37.292;2023-04-24T09:04:52;0.00;0.00
71801;HTU21D;59647;55.838;37.292;2023-04-24T09:07:19;0.00;0.00
71801;HTU21D;59647;55.838;37.292;2023-04-24T09:09:48;0.00;0.00
71801;HTU21D;59647;55.838;37.292;2023-04-24T09:12:16;0.00;0.00
71801;HTU21D;59647;55.838;37.292;2023-04-24T09:14:42;0.00;0.00
71801;HTU21D;59647;55.838;37.292;2023-04-24T09:17:11;0.00;0.00
71801;HTU21D;59647;55.838;37.292;2023-04-24T09:19:37;0.00;0.00
71801;HTU21D;59647;55.838;37.292;2023-04-24T09:22:07;0.00;0.00
71801;HTU21D;59647;55.838;37.292;2023-04-24T09:24:34;0.00;0.00
71801;HTU21D;59647;55.838;37.292;2023-04-24T09:27:01;0.00;0.00
71801;HTU21D;59647;55.838;37.292;2023-04-24T09:29:27;0.00;0.00
71801;HTU21D;59647;55.838;37.292;2023-04-24T09:31:54;0.00;0.00
71801;HTU21D;59647;55.838;37.292;2023-04-24T09:34:26;0.00;0.00
71801;HTU21D;59647;55.838;37.292;2023-04-24T09:36:53;0.00;0.00
71801;HTU21D;59647;55.838;37.292;2023-04-24T09:39:19;0.00;0.00
71801;HTU21D;59647;55.838;37.292;2023-04-24T09:41:47;0.00;0.00
71801;HTU21D;59647;55.838;37.292;2023-04-24T09:44:20;0.00;0.00
71801;HTU21D;59647;55.838;37.292;2023-04-24T09:46:57;0.00;0.00
71801;HTU21D;59647;55.838;37.292;2023-04-24T09:49:25;0.00;0.00
71801;HTU21D;59647;55.838;37.292;2023-04-24T09:51:52;0.00;0.00
71801;HTU21D;59647;55.838;37.292;2023-04-24T09:54:20;0.00;0.00
71801;HTU21D;59647;55.838;37.292;2023-04-24T09:56:50;0.00;0.00
71801;HTU21D;59647;55.838;37.292;2023-04-24T09:59:18;0.00;0.00
71801;HTU21D;59647;55.838;37.292;2023-04-24T10:01:45;0.00;0.00
71801;HTU21D;59647;55.838;37.292;2023-04-24T10:04:31;0.00;0.00
71801;HTU21D;59647;55.838;37.292;2023-04-24T10:06:57;0.00;0.00
71801;HTU21D;59647;55.838;37.292;2023-04-24T10:09:25;0.00;0.00
71801;HTU21D;59647;55.838;37.292;2023-04-24T10:11:53;0.00;0.00
71801;HTU21D;59647;55.838;37.292;2023-04-24T10:14:21;0.00;0.00
71801;HTU21D;59647;55.838;37.292;2023-04-24T10:16:48;0.00;0.00
71801;HTU21D;59647;55.838;37.292;2023-04-24T10:19:15;0.00;0.00
71801;HTU21D;59647;55.838;37.292;2023-04-24T10:21:43;0.00;0.00
71801;HTU21D;59647;55.838;37.292;2023-04-24T10:24:18;0.00;0.00
71801;HTU21D;59647;55.838;37.292;2023-04-24T10:26:47;0.00;0.00
71801;HTU21D;59647;55.838;37.292;2023-04-24T10:29:16;0.00;0.00
71801;HTU21D;59647;55.838;37.292;2023-04-24T10:31:42;0.00;0.00
71801;HTU21D;59647;55.838;37.292;2023-04-24T10:34:11;0.00;0.00
71801;HTU21D;59647;55.838;37.292;2023-04-24T10:36:43;0.00;0.00
71801;HTU21D;59647;55.838;37.292;2023-04-24T10:39:12;0.00;0.00
71801;HTU21D;59647;55.838;37.292;2023-04-24T10:41:40;0.00;0.00
71801;HTU21D;59647;55.838;37.292;2023-04-24T10:44:14;0.00;0.00
71801;HTU21D;59647;55.838;37.292;2023-04-24T10:46:43;0.00;0.00
71801;HTU21D;59647;55.838;37.292;2023-04-24T10:49:10;0.00;0.00
71801;HTU21D;59647;55.838;37.292;2023-04-24T10:51:47;0.00;0.00
71801;HTU21D;59647;55.838;37.292;2023-04-24T10:59:43;0.00;0.00
71801;HTU21D;59647;55.838;37.292;2023-04-24T11:02:09;0.00;0.00
71801;HTU21D;59647;55.838;37.292;2023-04-24T11:04:35;0.00;0.00
71801;HTU21D;59647;55.838;37.292;2023-04-24T11:07:05;0.00;0.00
71801;HTU21D;59647;55.838;37.292;2023-04-24T11:09:31;0.00;0.00
71801;HTU21D;59647;55.838;37.292;2023-04-24T11:12:06;0.00;0.00
71801;HTU21D;59647;55.838;37.292;2023-04-24T11:17:33;27.67;14.17
71801;HTU21D;59647;55.838;37.292;2023-04-24T11:20:17;27.94;13.97
71801;HTU21D;59647;55.838;37.292;2023-04-24T11:22:43;28.28;15.11
71801;HTU21D;59647;55.838;37.292;2023-04-24T11:25:09;28.53;15.26
71801;HTU21D;59647;55.838;37.292;2023-04-24T11:27:42;28.73;14.53
71801;HTU21D;59647;55.838;37.292;2023-04-24T11:30:09;29.00;14.55
71801;HTU21D;59647;55.838;37.292;2023-04-24T11:32:40;29.03;14.74
71801;HTU21D;59647;55.838;37.292;2023-04-24T11:35:29;29.06;14.70
71801;HTU21D;59647;55.838;37.292;2023-04-24T11:37:55;29.29;14.74
71801;HTU21D;59647;55.838;37.292;2023-04-24T11:40:22;29.38;11.77
71801;HTU21D;59647;55.838;37.292;2023-04-24T11:42:51;29.20;13.22
71801;HTU21D;59647;55.838;37.292;2023-04-24T11:45:18;28.98;13.81
71801;HTU21D;59647;55.838;37.292;2023-04-24T11:47:45;29.06;14.03
71801;HTU21D;59647;55.838;37.292;2023-04-24T11:50:13;28.84;11.75
71801;HTU21D;59647;55.838;37.292;2023-04-24T11:52:43;28.47;13.37
71801;HTU21D;59647;55.838;37.292;2023-04-24T11:57:49;28.18;12.30
71801;HTU21D;59647;55.838;37.292;2023-04-24T12:00:20;28.18;13.36
71801;HTU21D;59647;55.838;37.292;2023-04-24T12:02:48;28.40;14.71
71801;HTU21D;59647;55.838;37.292;2023-04-24T12:05:25;28.68;13.39
71801;HTU21D;59647;55.838;37.292;2023-04-24T12:07:54;28.92;14.29
71801;HTU21D;59647;55.838;37.292;2023-04-24T12:10:21;29.07;14.18
71801;HTU21D;59647;55.838;37.292;2023-04-24T12:12:48;0.00;0.00
71801;HTU21D;59647;55.838;37.292;2023-04-24T12:15:16;0.00;0.00
71801;HTU21D;59647;55.838;37.292;2023-04-24T12:17:42;0.00;0.00
71801;HTU21D;59647;55.838;37.292;2023-04-24T12:20:09;0.00;0.00
71801;HTU21D;59647;55.838;37.292;2023-04-24T12:22:59;0.00;0.00
71801;HTU21D;59647;55.838;37.292;2023-04-24T12:25:27;0.00;0.00
71801;HTU21D;59647;55.838;37.292;2023-04-24T12:30:30;29.37;11.95
71801;HTU21D;59647;55.838;37.292;2023-04-24T12:33:00;28.83;12.55
71801;HTU21D;59647;55.838;37.292;2023-04-24T12:35:28;27.98;12.37
71801;HTU21D;59647;55.838;37.292;2023-04-24T12:37:55;27.45;13.76
71801;HTU21D;59647;55.838;37.292;2023-04-24T12:40:21;27.26;13.94
71801;HTU21D;59647;55.838;37.292;2023-04-24T12:42:49;27.50;14.11
71801;HTU21D;59647;55.838;37.292;2023-04-24T12:45:16;27.73;12.73
71801;HTU21D;59647;55.838;37.292;2023-04-24T12:47:43;27.86;13.71
71801;HTU21D;59647;55.838;37.292;2023-04-24T12:50:11;28.11;14.30
71801;HTU21D;59647;55.838;37.292;2023-04-24T12:52:38;28.18;13.15
71801;HTU21D;59647;55.838;37.292;2023-04-24T12:55:05;28.38;13.71
71801;HTU21D;59647;55.838;37.292;2023-04-24T12:57:34;28.64;13.93
71801;HTU21D;59647;55.838;37.292;2023-04-24T13:00:01;28.84;13.99
71801;HTU21D;59647;55.838;37.292;2023-04-24T13:02:33;28.90;12.52
71801;HTU21D;59647;55.838;37.292;2023-04-24T13:05:00;28.05;13.20
71801;HTU21D;59647;55.838;37.292;2023-04-24T13:07:31;27.87;13.44
71801;HTU21D;59647;55.838;37.292;2023-04-24T13:09:57;27.44;11.36
71801;HTU21D;59647;55.838;37.292;2023-04-24T13:12:23;27.08;14.00
71801;HTU21D;59647;55.838;37.292;2023-04-24T13:14:49;26.92;14.38
71801;HTU21D;59647;55.838;37.292;2023-04-24T13:17:15;26.93;14.38
71801;HTU21D;59647;55.838;37.292;2023-04-24T13:19:42;27.17;14.57
71801;HTU21D;59647;55.838;37.292;2023-04-24T13:22:10;27.25;13.39
71801;HTU21D;59647;55.838;37.292;2023-04-24T13:24:37;27.43;14.08
71801;HTU21D;59647;55.838;37.292;2023-04-24T13:27:03;27.79;14.36
71801;HTU21D;59647;55.838;37.292;2023-04-24T13:29:29;27.41;10.56
71801;HTU21D;59647;55.838;37.292;2023-04-24T13:31:55;27.17;13.30
71801;HTU21D;59647;55.838;37.292;2023-04-24T13:34:23;27.22;13.08
71801;HTU21D;59647;55.838;37.292;2023-04-24T13:36:54;27.56;12.48
71801;HTU21D;59647;55.838;37.292;2023-04-24T13:39:21;27.84;12.91
71801;HTU21D;59647;55.838;37.292;2023-04-24T13:41:47;28.01;12.91
71801;HTU21D;59647;55.838;37.292;2023-04-24T13:44:17;28.06;12.65
71801;HTU21D;59647;55.838;37.292;2023-04-24T13:46:44;27.87;13.68
71801;HTU21D;59647;55.838;37.292;2023-04-24T13:49:12;27.57;12.88
71801;HTU21D;59647;55.838;37.292;2023-04-24T13:51:39;27.34;13.78
71801;HTU21D;59647;55.838;37.292;2023-04-24T13:54:06;27.08;13.80
71801;HTU21D;59647;55.838;37.292;2023-04-24T13:56:32;26.87;14.17
71801;HTU21D;59647;55.838;37.292;2023-04-24T13:58:58;26.58;12.61
71801;HTU21D;59647;55.838;37.292;2023-04-24T14:01:24;26.19;12.91
71801;HTU21D;59647;55.838;37.292;2023-04-24T14:03:52;25.84;14.24
71801;HTU21D;59647;55.838;37.292;2023-04-24T14:06:19;25.64;14.02
71801;HTU21D;59647;55.838;37.292;2023-04-24T14:08:45;25.54;14.44
71801;HTU21D;59647;55.838;37.292;2023-04-24T14:11:11;25.52;14.42
71801;HTU21D;59647;55.838;37.292;2023-04-24T14:13:38;25.49;14.46
71801;HTU21D;59647;55.838;37.292;2023-04-24T14:16:06;25.60;15.01
71801;HTU21D;59647;55.838;37.292;2023-04-24T14:18:32;25.84;14.34
71801;HTU21D;59647;55.838;37.292;2023-04-24T14:20:58;26.07;15.16
71801;HTU21D;59647;55.838;37.292;2023-04-24T14:23:24;26.33;14.81
71801;HTU21D;59647;55.838;37.292;2023-04-24T14:25:50;26.53;14.78
71801;HTU21D;59647;55.838;37.292;2023-04-24T14:28:18;26.64;14.61
71801;HTU21D;59647;55.838;37.292;2023-04-24T14:30:44;26.69;14.15
71801;HTU21D;59647;55.838;37.292;2023-04-24T14:33:10;26.83;14.39
71801;HTU21D;59647;55.838;37.292;2023-04-24T14:35:37;26.94;14.05
71801;HTU21D;59647;55.838;37.292;2023-04-24T14:38:03;26.85;14.05
71801;HTU21D;59647;55.838;37.292;2023-04-24T14:40:29;26.84;13.14
71801;HTU21D;59647;55.838;37.292;2023-04-24T14:42:56;26.68;13.80
71801;HTU21D;59647;55.838;37.292;2023-04-24T14:45:24;26.70;14.16
71801;HTU21D;59647;55.838;37.292;2023-04-24T14:47:50;26.86;14.41
71801;HTU21D;59647;55.838;37.292;2023-04-24T14:50:16;26.95;14.57
71801;HTU21D;59647;55.838;37.292;2023-04-24T14:52:42;27.08;14.76
71801;HTU21D;59647;55.838;37.292;2023-04-24T14:55:08;27.15;12.98
71801;HTU21D;59647;55.838;37.292;2023-04-24T14:57:34;27.13;14.30
71801;HTU21D;59647;55.838;37.292;2023-04-24T15:00:02;27.08;14.13
71801;HTU21D;59647;55.838;37.292;2023-04-24T15:02:32;26.95;14.54
71801;HTU21D;59647;55.838;37.292;2023-04-24T15:04:58;26.75;13.69
71801;HTU21D;59647;55.838;37.292;2023-04-24T15:07:24;26.42;14.53
71801;HTU21D;59647;55.838;37.292;2023-04-24T15:09:51;26.12;14.64
71801;HTU21D;59647;55.838;37.292;2023-04-24T15:12:17;25.84;14.94
71801;HTU21D;59647;55.838;37.292;2023-04-24T15:14:42;25.56;14.84
71801;HTU21D;59647;55.838;37.292;2023-04-24T15:17:08;25.32;15.03
71801;HTU21D;59647;55.838;37.292;2023-04-24T15:19:34;25.04;14.59
71801;HTU21D;59647;55.838;37.292;2023-04-24T15:22:00;24.77;15.16
71801;HTU21D;59647;55.838;37.292;2023-04-24T15:24:26;24.54;14.72